Time;durP1;ratioP1;P1;durP2;ratioP2;P2;SDS_P1;SDS_P2;PMS_P1;PMS_P2;Temp;Humidity;BMP_temperature;BMP_pressure;BME280_temperature;BME280_humidity;BME280_pressure;Samples;Min_cycle;Max_cycle;Signal;HPM_P1;HPM_P2
2021/12/24 00:00:16;;;;;;;3.35;2.28;;;;;;;5.91;100.00;95187.19;5135010;27;24504;-73
2021/12/24 00:02:43;;;;;;;3.92;2.88;;;;;;;5.90;100.00;95192.41;5135099;27;24416;-73
2021/12/24 00:05:10;;;;;;;4.30;2.92;;;;;;;5.83;100.00;95181.63;5134675;27;24958;-73
2021/12/24 00:07:39;;;;;;;3.35;2.72;;;;;;;5.74;100.00;95172.66;5129103;27;24425;-73
2021/12/24 00:10:08;;;;;;;4.93;3.20;;;;;;;5.64;100.00;95175.81;5121563;27;24433;-73
2021/12/24 00:12:37;;;;;;;7.22;5.78;;;;;;;5.57;100.00;95180.44;5115262;27;24445;-72
2021/12/24 00:15:18;;;;;;;10.47;7.70;;;;;;;5.52;100.00;95174.69;5115789;27;24527;-73
2021/12/24 00:17:45;;;;;;;7.85;5.97;;;;;;;5.42;100.00;95181.25;5115268;27;24426;-73
2021/12/24 00:20:34;;;;;;;7.63;5.53;;;;;;;5.36;100.00;95184.13;5133100;27;24444;-73
2021/12/24 00:23:31;;;;;;;25.17;14.77;;;;;;;5.33;100.00;95173.09;5130659;27;24437;-73
2021/12/24 00:37:06;;;;;;;23.90;12.88;;;;;;;4.94;100.00;95146.91;5132134;27;24436;-73
2021/12/24 00:39:39;;;;;;;23.85;12.57;;;;;;;4.93;100.00;95153.78;5133325;27;24436;-73
2021/12/24 00:42:06;;;;;;;8.32;5.07;;;;;;;4.94;100.00;95146.91;5114592;27;24439;-73
2021/12/24 00:44:33;;;;;;;19.42;11.93;;;;;;;4.93;100.00;95145.22;5118172;27;24977;-73
2021/12/24 00:46:59;;;;;;;33.25;19.85;;;;;;;4.94;100.00;95139.22;5123302;27;24841;-73
2021/12/24 00:49:26;;;;;;;18.92;10.43;;;;;;;5.01;100.00;95145.69;5127299;27;24441;-73
2021/12/24 00:52:07;;;;;;;28.17;16.27;;;;;;;4.96;100.00;95140.78;5125344;27;24448;-73
2021/12/24 00:57:19;;;;;;;4.10;3.13;;;;;;;4.99;100.00;95143.19;5114070;27;24449;-73
2021/12/24 00:59:45;;;;;;;17.17;8.60;;;;;;;5.02;100.00;95127.63;5122311;27;24510;-73
2021/12/24 01:02:11;;;;;;;15.43;8.57;;;;;;;4.98;100.00;95125.31;5119909;27;25046;-73
2021/12/24 01:04:38;;;;;;;16.13;6.72;;;;;;;5.07;100.00;95132.53;5113432;27;24430;-73
2021/12/24 01:07:04;;;;;;;4.97;2.90;;;;;;;5.10;100.00;95119.53;5122548;27;24490;-73
2021/12/24 01:09:31;;;;;;;33.38;15.82;;;;;;;5.29;100.00;95130.50;5122479;27;24442;-73
2021/12/24 01:11:59;;;;;;;13.90;6.22;;;;;;;5.55;100.00;95136.84;5123946;27;24452;-73
2021/12/24 01:14:25;;;;;;;44.42;20.10;;;;;;;5.53;100.00;95137.84;5131685;27;24485;-73
2021/12/24 01:17:02;;;;;;;14.90;8.27;;;;;;;5.62;100.00;95139.09;5131269;27;24408;-73
2021/12/24 01:19:29;;;;;;;5.50;3.67;;;;;;;5.63;100.00;95135.59;5130420;27;24532;-73
2021/12/24 01:22:26;;;;;;;7.28;4.03;;;;;;;5.72;100.00;95138.50;5129302;27;25053;-73
2021/12/24 01:24:58;;;;;;;6.13;3.42;;;;;;;5.90;100.00;95128.16;5129810;27;25056;-73
2021/12/24 01:27:49;;;;;;;7.70;3.97;;;;;;;6.12;100.00;95126.09;5119006;27;24796;-73
2021/12/24 01:37:51;;;;;;;4.85;2.90;;;;;;;6.11;100.00;95133.88;5112379;28;24955;-73
2021/12/24 01:38:47;;;;;;;5.40;2.30;;;;;;;6.18;100.00;95124.91;5129296;27;24574;-73
2021/12/24 01:42:39;;;;;;;2.77;2.20;;;;;;;6.23;100.00;95117.75;5129345;27;24482;-73
2021/12/24 01:44:00;;;;;;;3.03;2.10;;;;;;;6.59;100.00;95104.56;5130441;27;24486;-73
2021/12/24 01:46:27;;;;;;;4.22;2.08;;;;;;;6.94;100.00;95107.66;5111723;28;24799;-73
2021/12/24 01:48:53;;;;;;;6.00;2.05;;;;;;;7.36;100.00;95107.75;5111725;28;24440;-73
2021/12/24 01:51:20;;;;;;;7.45;3.10;;;;;;;7.24;100.00;95104.19;5111666;28;24414;-73
2021/12/24 01:53:46;;;;;;;3.40;2.13;;;;;;;7.36;100.00;95115.47;5111212;28;24849;-73
2021/12/24 01:56:13;;;;;;;2.45;2.03;;;;;;;7.33;100.00;95107.94;5111798;27;24413;-73
2021/12/24 01:58:40;;;;;;;6.88;3.15;;;;;;;7.07;100.00;95112.06;5111575;28;24441;-72
2021/12/24 02:01:08;;;;;;;3.42;2.28;;;;;;;6.98;100.00;95116.03;5111798;28;24529;-73
2021/12/24 02:03:34;;;;;;;3.05;2.45;;;;;;;7.12;100.00;95102.31;5129188;27;24432;-73
2021/12/24 02:06:01;;;;;;;2.95;1.90;;;;;;;7.01;100.00;95090.94;5123773;27;24878;-73
2021/12/24 02:08:27;;;;;;;3.15;2.05;;;;;;;7.09;100.00;95093.06;5127317;27;24428;-73
2021/12/24 02:10:54;;;;;;;4.43;2.15;;;;;;;7.00;100.00;95102.13;5129738;27;24417;-72
2021/12/24 02:13:21;;;;;;;2.75;2.08;;;;;;;7.28;100.00;95093.59;5111491;28;24499;-73
2021/12/24 02:16:02;;;;;;;4.05;2.30;;;;;;;7.52;100.00;95093.00;5111401;28;25027;-73
2021/12/24 02:28:14;;;;;;;4.53;2.20;;;;;;;7.31;100.00;95089.19;5115168;27;24438;-72
2021/12/24 02:29:47;;;;;;;5.40;2.40;;;;;;;6.95;100.00;95078.41;5110844;28;24490;-72
2021/12/24 02:32:13;;;;;;;3.72;2.08;;;;;;;6.91;100.00;95071.78;5110958;28;24502;-73
2021/12/24 02:34:40;;;;;;;5.28;2.20;;;;;;;6.73;100.00;95070.31;5110936;28;24444;-73
2021/12/24 02:37:09;;;;;;;3.10;2.10;;;;;;;6.87;100.00;95062.59;5110743;28;24478;-73
2021/12/24 02:39:35;;;;;;;4.27;2.37;;;;;;;6.92;100.00;95063.16;5110954;28;24501;-73
2021/12/24 02:42:11;;;;;;;3.73;2.20;;;;;;;6.82;100.00;95049.16;5110712;28;24434;-73
2021/12/24 02:44:37;;;;;;;3.60;1.97;;;;;;;6.69;100.00;95045.69;5110455;28;24441;-73
2021/12/24 02:47:12;;;;;;;3.17;2.00;;;;;;;6.91;100.00;95045.22;5110916;28;24525;-73
2021/12/24 02:55:14;;;;;;;8.07;2.20;;;;;;;7.14;100.00;95049.81;5129546;27;24515;-73
2021/12/24 02:57:41;;;;;;;5.85;2.35;;;;;;;7.20;100.00;95057.19;5119894;27;24432;-73
2021/12/24 03:00:14;;;;;;;2.03;1.80;;;;;;;7.21;100.00;95045.13;5130472;27;24966;-73
2021/12/24 03:02:43;;;;;;;2.42;1.85;;;;;;;7.31;100.00;95050.56;5111976;28;24432;-73
2021/12/24 03:05:12;;;;;;;3.50;2.05;;;;;;;7.35;100.00;95055.41;5129796;27;24437;-73
2021/12/24 03:07:40;;;;;;;2.30;2.10;;;;;;;7.37;100.00;95058.72;5129666;27;24489;-73
2021/12/24 03:10:12;;;;;;;5.35;2.30;;;;;;;7.41;100.00;95056.78;5119150;27;24459;-73
2021/12/24 03:12:40;;;;;;;3.03;2.15;;;;;;;7.53;100.00;95058.59;5127746;27;24452;-73
2021/12/24 03:15:08;;;;;;;3.17;2.10;;;;;;;7.64;100.00;95055.34;5129476;27;24486;-73
2021/12/24 03:17:34;;;;;;;2.95;2.13;;;;;;;7.57;100.00;95044.59;5129160;27;24437;-73
2021/12/24 03:20:06;;;;;;;4.35;2.22;;;;;;;7.38;100.00;95052.66;5124995;27;24444;-73
2021/12/24 03:22:43;;;;;;;3.28;1.95;;;;;;;7.71;100.00;95052.31;5125048;28;24529;-73
2021/12/24 03:25:11;;;;;;;2.53;1.90;;;;;;;7.48;100.00;95045.16;5129883;28;24421;-73
2021/12/24 03:27:38;;;;;;;2.90;2.20;;;;;;;7.41;100.00;95039.56;5127045;27;24436;-72
2021/12/24 03:30:05;;;;;;;3.13;1.92;;;;;;;7.38;100.00;95032.03;5129840;28;24444;-72
2021/12/24 03:32:32;;;;;;;3.75;2.42;;;;;;;7.38;100.00;95032.03;5127592;27;24453;-72
2021/12/24 03:34:58;;;;;;;4.78;2.45;;;;;;;7.58;100.00;95030.78;5131292;27;24428;-73
2021/12/24 03:37:25;;;;;;;3.33;1.88;;;;;;;7.49;100.00;95032.22;5127513;27;24456;-72
2021/12/24 03:39:51;;;;;;;3.33;2.20;;;;;;;7.53;100.00;95040.56;5131198;27;24421;-73
2021/12/24 03:42:19;;;;;;;4.07;2.55;;;;;;;7.50;100.00;95043.34;5129313;27;24433;-73
2021/12/24 03:44:53;;;;;;;3.47;2.00;;;;;;;7.50;100.00;95012.41;5116563;27;24988;-73
2021/12/24 03:47:21;;;;;;;3.10;2.22;;;;;;;7.71;100.00;95023.94;5111514;28;24485;-73
2021/12/24 03:49:56;;;;;;;3.90;2.07;;;;;;;7.44;100.00;95026.50;5116759;28;24441;-73
2021/12/24 03:52:38;;;;;;;4.88;2.33;;;;;;;7.52;100.00;95013.13;5118852;28;24876;-72
2021/12/24 03:55:05;;;;;;;7.55;2.25;;;;;;;7.55;100.00;95019.84;5121468;28;24441;-73
2021/12/24 03:57:36;;;;;;;4.07;2.10;;;;;;;7.64;100.00;95014.94;5114565;27;24486;-72
2021/12/24 04:00:10;;;;;;;3.35;2.10;;;;;;;7.52;100.00;95024.25;5129407;27;24433;-73
2021/12/24 04:02:36;;;;;;;2.70;2.00;;;;;;;7.50;100.00;95005.50;5126386;27;20807;-73
2021/12/24 04:05:03;;;;;;;2.95;1.98;;;;;;;7.71;100.00;95010.22;5122749;27;20760;-73
2021/12/24 04:07:29;;;;;;;3.10;2.05;;;;;;;7.55;100.00;95012.13;5129306;28;20772;-73
2021/12/24 04:10:01;;;;;;;4.78;2.40;;;;;;;7.52;100.00;95010.56;5111236;28;20783;-73
2021/12/24 04:12:28;;;;;;;2.97;2.00;;;;;;;7.40;100.00;95014.72;5123332;28;24444;-73
2021/12/24 04:14:56;;;;;;;2.35;2.10;;;;;;;7.31;100.00;95001.63;5125068;28;24436;-73
2021/12/24 04:17:23;;;;;;;3.80;2.22;;;;;;;7.20;100.00;95003.09;5125647;27;20808;-73
2021/12/24 04:25:14;;;;;;;4.05;2.35;;;;;;;7.21;100.00;95009.88;5114881;27;20704;-71
2021/12/24 04:27:41;;;;;;;4.95;2.30;;;;;;;7.21;100.00;94999.59;5120705;27;24429;-73
2021/12/24 04:30:13;;;;;;;3.05;2.03;;;;;;;7.10;100.00;95012.31;5124084;27;20768;-72
2021/12/24 04:32:59;;;;;;;3.85;2.58;;;;;;;7.62;100.00;94996.16;5125151;27;24477;-72
2021/12/24 04:35:40;;;;;;;4.95;2.72;;;;;;;7.60;100.00;95002.34;5113650;28;24426;-73
2021/12/24 04:52:14;;;;;;;3.90;2.38;;;;;;;7.54;100.00;94998.41;5072919;28;24434;-73
2021/12/24 05:03:01;;;;;;;3.15;2.45;;;;;;;7.30;100.00;95010.25;5117016;27;21252;-72
2021/12/24 05:05:38;;;;;;;4.22;2.47;;;;;;;7.35;100.00;95009.03;5112756;28;24935;-73
2021/12/24 05:10:48;;;;;;;4.13;2.55;;;;;;;7.40;100.00;95009.56;5112003;27;24461;-73
2021/12/24 05:13:17;;;;;;;2.53;1.92;;;;;;;7.34;100.00;95015.13;5118371;27;25001;-73
2021/12/24 05:15:47;;;;;;;3.53;2.50;;;;;;;7.46;100.00;95005.81;5131643;27;20821;-72
2021/12/24 05:18:30;;;;;;;4.00;2.53;;;;;;;7.40;100.00;95024.22;5130039;27;24429;-73
2021/12/24 05:23:41;;;;;;;3.30;2.38;;;;;;;7.19;100.00;95016.91;5124066;27;24448;-73
2021/12/24 05:26:08;;;;;;;3.67;2.37;;;;;;;7.38;100.00;95032.03;5112510;28;24417;-72
2021/12/24 05:28:34;;;;;;;4.07;2.88;;;;;;;7.24;100.00;95019.19;5127388;27;24809;-73
2021/12/24 05:31:01;;;;;;;2.83;2.20;;;;;;;7.11;100.00;95020.84;5133657;27;24409;-73
2021/12/24 05:33:29;;;;;;;3.75;3.05;;;;;;;7.26;100.00;95012.19;5120349;27;24454;-72
2021/12/24 05:35:55;;;;;;;6.70;4.53;;;;;;;7.20;100.00;95004.84;5119541;27;24455;-72
2021/12/24 05:38:22;;;;;;;4.22;3.08;;;;;;;7.15;100.00;95010.25;5118383;27;24487;-72
2021/12/24 05:40:48;;;;;;;5.63;3.90;;;;;;;7.16;100.00;95005.97;5112339;28;24429;-73
2021/12/24 05:43:15;;;;;;;4.45;3.13;;;;;;;7.13;100.00;95016.44;5124461;27;24426;-73
2021/12/24 05:45:41;;;;;;;5.00;2.70;;;;;;;7.09;100.00;95025.28;5111801;28;24422;-73
2021/12/24 05:48:08;;;;;;;4.50;3.10;;;;;;;7.13;100.00;95029.31;5125068;27;24533;-76
2021/12/24 05:50:36;;;;;;;4.85;3.53;;;;;;;7.08;100.00;95031.31;5112175;28;24418;-74
2021/12/24 05:53:02;;;;;;;7.38;3.85;;;;;;;7.03;100.00;95031.63;5114207;27;24457;-73
2021/12/24 05:55:29;;;;;;;7.85;3.67;;;;;;;7.05;100.00;95023.81;5112968;27;24993;-73
2021/12/24 05:57:55;;;;;;;9.85;3.40;;;;;;;7.01;100.00;95021.41;5113307;27;24448;-73
2021/12/24 06:00:22;;;;;;;5.80;3.22;;;;;;;6.97;100.00;95025.09;5113790;27;24444;-73
2021/12/24 06:02:48;;;;;;;8.05;3.75;;;;;;;6.88;100.00;95029.97;5113240;27;24479;-72
2021/12/24 06:05:16;;;;;;;5.57;2.88;;;;;;;6.81;100.00;95029.50;5111754;28;24943;-73
2021/12/24 06:07:43;;;;;;;7.03;2.97;;;;;;;6.85;100.00;95038.69;5124245;27;24429;-72
2021/12/24 06:10:10;;;;;;;2.90;2.60;;;;;;;6.88;100.00;95028.22;5112793;27;25030;-73
2021/12/24 06:12:37;;;;;;;4.32;3.05;;;;;;;6.86;100.00;95032.66;5112538;27;24441;-72
2021/12/24 06:15:06;;;;;;;3.58;2.92;;;;;;;6.89;100.00;95029.03;5111877;28;24457;-73
2021/12/24 06:17:36;;;;;;;4.05;2.58;;;;;;;6.85;100.00;95028.41;5112684;27;24515;-72
2021/12/24 06:20:02;;;;;;;5.03;2.65;;;;;;;6.95;100.00;95028.69;5112766;27;24472;-72
2021/12/24 06:22:29;;;;;;;3.88;2.53;;;;;;;6.84;100.00;95020.78;5113680;27;25002;-72
2021/12/24 06:24:56;;;;;;;3.20;2.72;;;;;;;6.80;100.00;95033.00;5112717;27;24437;-73
2021/12/24 06:27:23;;;;;;;3.20;2.50;;;;;;;6.76;100.00;95037.50;5112267;27;24440;-72
2021/12/24 06:29:49;;;;;;;4.30;2.57;;;;;;;6.81;100.00;95044.13;5111580;28;24474;-72
2021/12/24 06:32:16;;;;;;;4.53;2.63;;;;;;;6.90;100.00;95035.88;5113581;27;24437;-72
2021/12/24 06:34:42;;;;;;;3.33;2.80;;;;;;;6.81;100.00;95031.25;5112444;27;24456;-72
2021/12/24 06:37:09;;;;;;;5.07;3.17;;;;;;;6.81;100.00;95031.25;5112351;27;25012;-73
2021/12/24 06:39:36;;;;;;;5.13;3.63;;;;;;;6.84;100.00;95031.06;5111963;27;24445;-72
2021/12/24 06:42:05;;;;;;;3.90;2.50;;;;;;;6.83;100.00;95029.44;5112684;27;24440;-73
2021/12/24 06:44:32;;;;;;;4.53;3.05;;;;;;;6.70;100.00;95024.16;5112067;27;24434;-72
2021/12/24 06:46:59;;;;;;;5.80;3.38;;;;;;;6.67;100.00;95021.78;5129427;27;24532;-74
2021/12/24 06:49:25;;;;;;;3.80;2.85;;;;;;;6.62;100.00;95027.19;5118233;27;24445;-74
2021/12/24 06:51:52;;;;;;;4.57;2.85;;;;;;;6.56;100.00;95032.69;5130169;27;24433;-74
2021/12/24 06:54:18;;;;;;;6.40;3.00;;;;;;;6.60;100.00;95023.06;5125044;27;24460;-73
2021/12/24 06:56:45;;;;;;;5.28;2.58;;;;;;;6.64;100.00;95019.41;5113004;27;24507;-73
2021/12/24 06:59:13;;;;;;;4.70;2.88;;;;;;;6.57;100.00;95018.94;5116283;27;24459;-73
2021/12/24 07:01:40;;;;;;;3.83;2.95;;;;;;;6.60;100.00;95016.19;5120434;27;24433;-73
2021/12/24 07:04:06;;;;;;;5.50;3.67;;;;;;;6.61;100.00;95020.41;5138996;27;24427;-73
2021/12/24 07:06:32;;;;;;;4.50;3.45;;;;;;;6.63;100.00;95028.84;5133794;27;24432;-73
2021/12/24 07:08:59;;;;;;;4.05;3.13;;;;;;;6.58;100.00;95030.88;5138391;27;24451;-73
2021/12/24 07:11:26;;;;;;;8.38;4.93;;;;;;;6.58;100.00;95032.63;5153764;27;20766;-73
2021/12/24 07:13:53;;;;;;;4.70;3.80;;;;;;;6.60;100.00;95033.34;5153156;27;24444;-73
2021/12/24 07:16:20;;;;;;;8.35;3.45;;;;;;;6.59;100.00;95027.38;5137688;27;24429;-73
2021/12/24 07:18:47;;;;;;;7.70;5.30;;;;;;;6.53;100.00;95033.72;5122667;27;24462;-72
2021/12/24 07:21:13;;;;;;;7.05;5.07;;;;;;;6.52;100.00;95026.06;5116285;27;24437;-72
2021/12/24 07:23:40;;;;;;;6.47;5.13;;;;;;;6.52;100.00;95044.91;5115740;28;24440;-72
2021/12/24 07:26:06;;;;;;;6.38;5.55;;;;;;;6.43;100.00;95031.78;5119855;28;24429;-72
2021/12/24 07:28:33;;;;;;;11.75;7.95;;;;;;;6.39;100.00;95030.31;5113548;27;24791;-72
2021/12/24 07:30:59;;;;;;;7.03;4.95;;;;;;;6.44;100.00;95030.84;5110394;27;24448;-72
2021/12/24 07:33:27;;;;;;;13.90;4.13;;;;;;;6.49;100.00;95026.28;5116542;28;24452;-72
2021/12/24 07:35:54;;;;;;;6.75;4.53;;;;;;;6.45;100.00;95024.78;5124426;27;24464;-72
2021/12/24 07:38:20;;;;;;;4.32;2.83;;;;;;;6.49;100.00;95009.09;5125383;27;24436;-72
2021/12/24 07:40:47;;;;;;;6.18;5.28;;;;;;;6.54;100.00;95025.06;5124641;27;24885;-72
2021/12/24 07:43:14;;;;;;;6.53;3.65;;;;;;;6.50;100.00;95022.78;5109313;28;24978;-72
2021/12/24 07:45:42;;;;;;;4.05;3.30;;;;;;;6.50;100.00;95023.59;5110654;28;24841;-72
2021/12/24 07:48:12;;;;;;;7.93;4.00;;;;;;;6.45;100.00;95027.34;5114731;28;24429;-72
2021/12/24 07:53:37;;;;;;;6.82;4.43;;;;;;;6.40;100.00;95022.47;5049719;28;24465;-72
2021/12/24 07:56:04;;;;;;;5.57;3.83;;;;;;;6.42;100.00;95023.22;5097895;27;24430;-72
2021/12/24 07:58:30;;;;;;;6.03;3.93;;;;;;;6.38;100.00;95021.75;5115683;27;24425;-72
2021/12/24 08:00:57;;;;;;;5.17;3.83;;;;;;;6.43;100.00;95022.31;5134795;27;24507;-73
2021/12/24 08:03:26;;;;;;;6.22;3.75;;;;;;;6.40;100.00;95024.22;5128989;27;24437;-73
2021/12/24 08:05:54;;;;;;;7.25;4.88;;;;;;;6.33;100.00;95020.34;5125239;27;24799;-72
2021/12/24 08:08:20;;;;;;;4.73;3.87;;;;;;;6.31;100.00;95028.16;5131505;27;24794;-72
2021/12/24 08:10:46;;;;;;;6.38;4.10;;;;;;;6.30;100.00;95029.06;5117330;27;26146;-72
2021/12/24 08:13:13;;;;;;;4.50;3.30;;;;;;;6.29;100.00;95019.69;5120209;27;24989;-72
2021/12/24 08:15:39;;;;;;;7.38;4.10;;;;;;;6.25;100.00;95021.63;5113223;28;24491;-72
2021/12/24 08:18:06;;;;;;;6.05;3.97;;;;;;;6.25;100.00;95033.66;5130249;27;24998;-73
2021/12/24 08:20:32;;;;;;;5.90;4.00;;;;;;;6.26;100.00;95035.31;5133931;27;24782;-72
2021/12/24 08:23:00;;;;;;;4.13;3.40;;;;;;;6.18;100.00;95034.91;5133983;27;24481;-72
2021/12/24 08:25:27;;;;;;;3.90;3.30;;;;;;;6.15;100.00;95027.38;5134196;27;24417;-72
2021/12/24 08:27:54;;;;;;;4.43;2.80;;;;;;;6.07;100.00;95023.50;5134317;27;24547;-72
2021/12/24 08:30:20;;;;;;;4.25;2.78;;;;;;;6.11;100.00;95025.91;5134286;27;24520;-73
2021/12/24 08:32:47;;;;;;;4.50;3.40;;;;;;;6.02;100.00;95028.09;5154637;27;24432;-73
2021/12/24 08:35:20;;;;;;;3.75;3.30;;;;;;;6.09;100.00;95023.44;5154821;27;24436;-72
2021/12/24 08:37:46;;;;;;;4.00;2.92;;;;;;;6.09;100.00;95025.19;5155309;27;24481;-72
2021/12/24 08:40:14;;;;;;;4.97;3.10;;;;;;;6.00;100.00;95037.63;5155120;27;24424;-73
2021/12/24 08:42:41;;;;;;;4.43;3.10;;;;;;;5.94;100.00;95017.41;5154717;27;24993;-73
2021/12/24 08:45:08;;;;;;;4.03;3.23;;;;;;;5.92;100.00;95028.66;5128264;27;25008;-73
2021/12/24 08:47:35;;;;;;;6.28;3.38;;;;;;;5.94;100.00;95020.00;5125860;27;24441;-69
2021/12/24 08:50:02;;;;;;;4.45;3.30;;;;;;;5.94;100.00;95014.84;5127519;27;24440;-74
2021/12/24 08:52:28;;;;;;;7.80;4.30;;;;;;;5.93;100.00;95015.78;5120365;27;24471;-73
2021/12/24 08:54:55;;;;;;;6.80;3.97;;;;;;;5.89;100.00;95013.41;5133597;27;24437;-73
2021/12/24 08:57:22;;;;;;;4.90;3.97;;;;;;;5.79;100.00;95019.06;5128472;27;24523;-73
2021/12/24 08:59:49;;;;;;;8.98;5.25;;;;;;;5.81;100.00;95018.97;5113359;27;24486;-73
2021/12/24 09:02:16;;;;;;;9.40;4.75;;;;;;;5.75;100.00;95011.63;5118526;27;24863;-73
2021/12/24 09:04:42;;;;;;;5.72;4.63;;;;;;;5.79;100.00;95016.50;5121603;27;24430;-73
2021/12/24 09:07:09;;;;;;;15.73;9.05;;;;;;;5.75;100.00;95015.03;5123264;27;24444;-73
2021/12/24 09:09:35;;;;;;;13.90;6.60;;;;;;;5.70;100.00;95006.72;5123054;27;24486;-73
2021/12/24 09:12:01;;;;;;;4.40;3.22;;;;;;;5.74;100.00;95002.25;5113773;27;24985;-74
2021/12/24 09:14:29;;;;;;;4.70;3.75;;;;;;;5.81;100.00;94991.53;5113021;28;24563;-72
2021/12/24 09:17:00;;;;;;;4.63;3.30;;;;;;;5.78;100.00;95006.28;5112609;28;24421;-74
2021/12/24 09:19:28;;;;;;;4.87;3.30;;;;;;;5.76;100.00;95003.00;5113015;28;24543;-73
2021/12/24 09:21:56;;;;;;;4.70;3.38;;;;;;;5.69;100.00;95010.22;5113342;28;24445;-73
2021/12/24 09:24:24;;;;;;;4.60;3.47;;;;;;;5.76;100.00;95008.13;5112316;28;24467;-73
2021/12/24 09:26:54;;;;;;;5.03;3.65;;;;;;;5.79;100.00;95011.38;5112583;28;24432;-73
2021/12/24 09:29:20;;;;;;;9.10;3.50;;;;;;;5.88;100.00;94999.72;5112648;28;24859;-70
2021/12/24 09:31:48;;;;;;;5.03;3.20;;;;;;;5.75;100.00;95007.31;5112556;28;24418;-71
2021/12/24 09:34:15;;;;;;;5.00;3.60;;;;;;;5.73;100.00;95006.56;5112289;28;24491;-70
2021/12/24 09:36:41;;;;;;;8.20;3.73;;;;;;;5.68;100.00;94997.47;5112060;28;24409;-72
2021/12/24 09:39:09;;;;;;;4.83;3.77;;;;;;;5.66;100.00;95001.84;5112474;28;24503;-72
2021/12/24 09:41:36;;;;;;;4.88;3.25;;;;;;;5.71;100.00;95000.69;5112382;28;24508;-71
2021/12/24 09:44:03;;;;;;;3.42;2.92;;;;;;;5.68;100.00;94995.72;5112381;28;24479;-71
2021/12/24 09:46:30;;;;;;;3.60;3.00;;;;;;;5.63;100.00;95005.41;5111996;27;24418;-71
2021/12/24 09:48:59;;;;;;;5.77;3.90;;;;;;;5.62;100.00;95001.19;5112147;28;24417;-72
2021/12/24 09:51:27;;;;;;;4.13;3.20;;;;;;;5.62;100.00;94998.63;5113693;27;24473;-71
2021/12/24 09:53:55;;;;;;;5.57;3.80;;;;;;;5.70;100.00;94993.06;5117443;27;24445;-75
2021/12/24 09:56:21;;;;;;;4.70;4.20;;;;;;;5.65;100.00;94992.50;5120439;27;24966;-72
2021/12/24 09:58:48;;;;;;;9.05;6.45;;;;;;;5.63;100.00;94992.56;5132612;27;24481;-73
2021/12/24 10:01:28;;;;;;;6.05;4.47;;;;;;;5.63;100.00;94995.13;5119048;27;24488;-73
2021/12/24 10:04:03;;;;;;;6.30;4.43;;;;;;;5.62;100.00;94985.78;5111798;28;24421;-72
2021/12/24 10:06:30;;;;;;;9.23;5.45;;;;;;;5.65;100.00;94982.22;5111778;28;24425;-72
2021/12/24 10:09:01;;;;;;;6.88;4.22;;;;;;;5.65;100.00;94985.63;5119959;27;24429;-73
2021/12/24 10:11:30;;;;;;;9.60;4.28;;;;;;;5.65;100.00;94977.91;5114566;27;24424;-72
2021/12/24 10:14:05;;;;;;;4.20;3.47;;;;;;;5.65;100.00;94975.34;5118379;27;24454;-73
2021/12/24 10:16:32;;;;;;;5.03;3.72;;;;;;;5.67;100.00;94988.09;5126271;27;20821;-72
2021/12/24 10:19:03;;;;;;;5.28;3.40;;;;;;;5.71;100.00;94976.72;5119838;27;24437;-72
2021/12/24 10:21:33;;;;;;;6.47;5.38;;;;;;;5.74;100.00;94979.13;5132250;27;24541;-71
2021/12/24 10:24:01;;;;;;;7.17;5.23;;;;;;;5.80;100.00;94971.91;5119513;27;25281;-73
2021/12/24 10:26:30;;;;;;;9.40;5.20;;;;;;;5.78;100.00;94966.03;5111331;28;24426;-72
2021/12/24 10:29:03;;;;;;;4.82;3.67;;;;;;;5.79;100.00;94957.41;5111299;28;24422;-73
2021/12/24 10:31:32;;;;;;;10.27;6.18;;;;;;;5.84;100.00;94962.28;5111643;28;24491;-73
2021/12/24 10:34:09;;;;;;;5.50;3.83;;;;;;;5.89;100.00;94959.44;5111411;28;24414;-72
2021/12/24 10:36:56;;;;;;;10.98;6.25;;;;;;;5.87;100.00;94956.97;5127154;27;24436;-73
2021/12/24 10:39:25;;;;;;;6.07;4.45;;;;;;;5.86;100.00;94964.75;5131694;27;24417;-72
2021/12/24 10:41:53;;;;;;;3.80;2.83;;;;;;;5.91;100.00;94952.47;5131978;27;24417;-73
2021/12/24 10:44:21;;;;;;;9.60;5.32;;;;;;;5.89;100.00;94949.16;5131716;27;24491;-73
2021/12/24 10:47:07;;;;;;;17.60;8.93;;;;;;;5.85;100.00;94957.97;5131611;27;24421;-73
2021/12/24 10:49:55;;;;;;;7.25;5.53;;;;;;;5.87;100.00;94949.25;5131605;27;24413;-73
2021/12/24 10:52:43;;;;;;;6.30;3.78;;;;;;;5.86;100.00;94946.75;5131844;27;24466;-73
2021/12/24 10:55:12;;;;;;;4.20;2.50;;;;;;;5.88;100.00;94937.22;5131504;27;24447;-72
2021/12/24 10:57:41;;;;;;;2.10;1.80;;;;;;;5.86;100.00;94939.06;5131291;27;24968;-73
2021/12/24 11:00:16;;;;;;;3.05;2.35;;;;;;;5.88;100.00;94932.91;5126980;27;24434;-72
2021/12/24 11:02:43;;;;;;;2.78;1.95;;;;;;;5.90;100.00;94935.41;5118323;27;24437;-73
2021/12/24 11:05:25;;;;;;;3.83;1.73;;;;;;;5.89;100.00;94933.75;5128708;27;24552;-73
2021/12/24 11:07:52;;;;;;;2.42;2.00;;;;;;;5.97;100.00;94935.00;5137624;27;24444;-73
2021/12/24 11:10:22;;;;;;;2.92;2.03;;;;;;;5.98;100.00;94928.13;5151746;27;24425;-72
2021/12/24 11:12:53;;;;;;;2.72;1.73;;;;;;;6.10;100.00;94932.53;5144687;27;24798;-72
2021/12/24 11:15:23;;;;;;;3.55;1.85;;;;;;;6.09;100.00;94928.31;5142302;27;24455;-72
2021/12/24 11:17:51;;;;;;;3.15;2.20;;;;;;;6.11;100.00;94931.59;5132667;27;24452;-73
2021/12/24 11:20:19;;;;;;;2.27;1.87;;;;;;;6.06;100.00;94925.91;5120484;27;24433;-71
2021/12/24 11:23:07;;;;;;;2.10;1.88;;;;;;;6.06;100.00;94925.91;5131248;27;24528;-70
2021/12/24 11:25:37;;;;;;;2.35;2.10;;;;;;;6.06;100.00;94929.31;5131998;27;25027;-71
2021/12/24 11:28:04;;;;;;;2.70;1.90;;;;;;;6.06;100.00;94928.50;5135548;27;24417;-71
2021/12/24 11:30:32;;;;;;;2.40;1.70;;;;;;;6.11;100.00;94921.31;5122547;27;24434;-72
2021/12/24 11:32:59;;;;;;;2.60;2.20;;;;;;;6.22;100.00;94918.13;5114690;28;24974;-71
2021/12/24 11:35:29;;;;;;;3.00;2.42;;;;;;;6.17;100.00;94920.16;5118557;27;24451;-71
2021/12/24 11:37:56;;;;;;;1.58;1.40;;;;;;;6.22;100.00;94918.13;5135511;27;24416;-71
2021/12/24 11:40:25;;;;;;;1.95;1.48;;;;;;;6.19;100.00;94914.00;5135420;27;24512;-71
2021/12/24 11:42:55;;;;;;;3.22;2.83;;;;;;;6.18;100.00;94912.34;5134841;27;24989;-72
2021/12/24 11:45:23;;;;;;;3.53;2.72;;;;;;;6.16;100.00;94918.50;5130786;27;25008;-71
2021/12/24 11:47:50;;;;;;;3.63;2.70;;;;;;;6.15;100.00;94914.25;5122911;27;24830;-73
2021/12/24 11:50:18;;;;;;;3.55;2.70;;;;;;;6.17;100.00;94913.25;5120238;27;24776;-72
2021/12/24 11:52:49;;;;;;;1.90;1.60;;;;;;;6.18;100.00;94914.91;5115368;27;25008;-71
2021/12/24 11:55:17;;;;;;;4.15;1.65;;;;;;;6.22;100.00;94907.84;5134787;27;24448;-72
2021/12/24 11:57:55;;;;;;;1.80;1.52;;;;;;;6.30;100.00;94903.06;5126411;27;20768;-72
2021/12/24 12:00:24;;;;;;;2.55;1.83;;;;;;;6.34;100.00;94889.13;5114247;27;24437;-72
2021/12/24 12:02:53;;;;;;;2.25;1.70;;;;;;;6.45;100.00;94888.44;5122658;27;24433;-72
2021/12/24 12:05:24;;;;;;;1.95;1.60;;;;;;;6.44;100.00;94891.94;5136345;27;24435;-74
2021/12/24 12:07:53;;;;;;;1.85;1.30;;;;;;;6.45;100.00;94881.59;5151358;27;24421;-70
2021/12/24 12:10:52;;;;;;;1.70;1.40;;;;;;;6.44;100.00;94881.66;5138306;27;25000;-71
2021/12/24 12:13:55;;;;;;;2.25;1.55;;;;;;;6.43;100.00;94878.25;5134583;27;24436;-72
2021/12/24 12:16:23;;;;;;;1.48;1.20;;;;;;;6.45;100.00;94875.59;5134029;27;24816;-72
2021/12/24 12:19:02;;;;;;;1.58;1.30;;;;;;;6.47;100.00;94881.47;5134361;27;24989;-72
2021/12/24 12:21:38;;;;;;;2.28;1.50;;;;;;;6.46;100.00;94872.13;5134343;27;24524;-72
2021/12/24 12:26:50;;;;;;;2.95;1.73;;;;;;;6.47;100.00;94868.63;5105955;27;24763;-72
2021/12/24 12:29:19;;;;;;;2.47;1.80;;;;;;;6.49;100.00;94872.75;5132023;27;24799;-72
2021/12/24 12:31:45;;;;;;;4.63;2.47;;;;;;;6.52;100.00;94869.97;5134323;27;24433;-72
2021/12/24 12:34:45;;;;;;;2.00;1.40;;;;;;;6.58;100.00;94860.25;5134160;27;25006;-72
2021/12/24 12:37:13;;;;;;;3.70;0.82;;;;;;;6.65;100.00;94858.94;5141371;27;24440;-72
2021/12/24 12:39:41;;;;;;;1.92;0.50;;;;;;;6.66;100.00;94856.28;5154823;27;24416;-72
2021/12/24 12:42:08;;;;;;;0.75;0.60;;;;;;;6.68;100.00;94854.44;5142167;27;24424;-72
2021/12/24 12:44:35;;;;;;;0.73;0.70;;;;;;;6.70;100.00;94844.88;5134102;27;24440;-72
2021/12/24 12:47:10;;;;;;;1.20;0.80;;;;;;;6.68;100.00;94848.47;5133932;27;24507;-72
2021/12/24 12:49:36;;;;;;;1.10;0.77;;;;;;;6.70;100.00;94852.59;5136254;27;24837;-71
2021/12/24 12:52:06;;;;;;;0.93;0.75;;;;;;;6.67;100.00;94852.78;5119395;27;24433;-71
2021/12/24 12:54:42;;;;;;;2.80;1.00;;;;;;;6.68;100.00;94843.34;5113220;27;25051;-71